Terminal Aerodrome Forecast
Issued by NWS

Home | Current Version | Previous Version | Text Only | Print | Product List | Glossary Off
Versions: 1 2 3 4 5 6 7 8 9 10 11 12 13 14 15 16

000
FTUS43 KFGF 281131 AAB
TAFBJI
TAF AMD
KBJI 281131Z 2812/2912 29005KT P6SM VCSH BKN015
     FM281500 29009KT P6SM VCSH BKN035
     FM281800 28012KT P6SM BKN040
      TEMPO 2819/2821 4SM -SHRA OVC025
     FM282100 29013KT P6SM VCSH BKN050
     FM282300 29013KT P6SM BKN045
     FM290300 30009KT P6SM BKN030
     FM290600 30010KT P6SM BKN008=

USA.gov is the U.S. government's official web portal to all federal, state and local government web resources and services.